Time;durP1;ratioP1;P1;durP2;ratioP2;P2;SDS_P1;SDS_P2;PMS_P1;PMS_P2;Temp;Humidity;BMP_temperature;BMP_pressure;BME280_temperature;BME280_humidity;BME280_pressure;Samples;Min_cycle;Max_cycle;Signal;HPM_P1;HPM_P2
2021/12/16 00:02:35;;;;;;;12.45;10.55;;;5.10;99.90;;;;;;1945120;73;21137;-74
2021/12/16 00:07:45;;;;;;;16.48;11.68;;;5.00;99.90;;;;;;1943013;71;21068;-76
2021/12/16 00:31:57;;;;;;;17.07;12.88;;;4.90;99.90;;;;;;1936691;72;21036;-75
2021/12/16 00:34:20;;;;;;;15.13;12.37;;;4.90;99.90;;;;;;1935444;72;21064;-75
2021/12/16 00:36:47;;;;;;;13.13;11.55;;;4.90;99.90;;;;;;1945757;73;21088;-75
2021/12/16 00:39:13;;;;;;;13.25;11.48;;;4.80;99.90;;;;;;1943206;72;21144;-75
2021/12/16 00:41:41;;;;;;;13.85;12.40;;;4.80;99.90;;;;;;1934910;73;21248;-75
2021/12/16 00:44:18;;;;;;;16.95;12.03;;;4.70;99.90;;;;;;1935061;70;21081;-76
2021/12/16 00:46:58;;;;;;;15.90;12.03;;;4.70;99.90;;;;;;1947326;71;21077;-74
2021/12/16 00:49:48;;;;;;;11.95;10.30;;;4.80;99.90;;;;;;1939190;71;21190;-76
2021/12/16 00:54:30;;;;;;;12.35;10.68;;;4.60;99.90;;;;;;1934730;72;21536;-76
2021/12/16 00:56:58;;;;;;;11.88;10.43;;;4.60;99.90;;;;;;1949024;72;21074;-75
2021/12/16 00:59:27;;;;;;;15.40;10.90;;;4.70;99.90;;;;;;1945186;73;21100;-75
2021/12/16 01:02:02;;;;;;;14.63;10.10;;;4.60;99.90;;;;;;1943983;72;21214;-73
2021/12/16 01:04:49;;;;;;;16.23;12.50;;;4.60;99.90;;;;;;1930387;73;21316;-75
2021/12/16 01:10:10;;;;;;;17.35;11.60;;;4.60;99.90;;;;;;1923434;73;21159;-75
2021/12/16 01:34:05;;;;;;;17.07;11.10;;;4.70;99.90;;;;;;1933944;73;21058;-74
2021/12/16 01:47:24;;;;;;;22.22;14.35;;;4.60;99.90;;;;;;1944280;72;21177;-74
2021/12/16 01:49:59;;;;;;;21.20;14.38;;;4.60;99.90;;;;;;1940630;72;21092;-76
2021/12/16 01:52:46;;;;;;;18.12;14.83;;;4.60;99.90;;;;;;1933990;73;21167;-76
2021/12/16 01:57:47;;;;;;;16.75;14.58;;;4.50;99.90;;;;;;1942729;73;21463;-75
2021/12/16 02:00:08;;;;;;;17.62;14.73;;;4.60;99.90;;;;;;1935489;72;21182;-75
2021/12/16 02:02:40;;;;;;;15.43;12.40;;;4.60;99.90;;;;;;1944096;73;21063;-75
2021/12/16 02:06:12;;;;;;;15.43;12.20;;;4.60;99.90;;;;;;1934360;73;21501;-75
2021/12/16 02:08:17;;;;;;;16.57;11.90;;;4.50;99.90;;;;;;1936372;73;21220;-75
2021/12/16 02:10:29;;;;;;;19.37;14.30;;;4.50;99.90;;;;;;1926678;73;21169;-74
2021/12/16 02:34:29;;;;;;;19.00;13.28;;;4.70;99.90;;;;;;1923521;73;21480;-75
2021/12/16 02:36:50;;;;;;;19.23;13.90;;;4.70;99.90;;;;;;1945585;72;21129;-75
2021/12/16 02:39:16;;;;;;;17.70;14.03;;;4.70;99.90;;;;;;1939174;73;21194;-76
2021/12/16 02:41:42;;;;;;;24.67;14.05;;;4.70;99.90;;;;;;1933619;73;21087;-75
2021/12/16 02:49:20;;;;;;;19.00;14.03;;;4.70;99.90;;;;;;1938562;73;21145;-75
2021/12/16 02:51:47;;;;;;;16.70;12.60;;;4.70;99.90;;;;;;1940772;72;21070;-75
2021/12/16 02:54:14;;;;;;;23.22;14.35;;;4.70;99.90;;;;;;1937151;72;21118;-75
2021/12/16 02:56:40;;;;;;;17.35;14.35;;;4.70;99.90;;;;;;1937583;72;21092;-75
2021/12/16 02:59:06;;;;;;;18.70;14.75;;;4.70;99.90;;;;;;1951786;73;21063;-75
2021/12/16 03:01:33;;;;;;;18.80;14.68;;;4.70;99.90;;;;;;1948403;72;21484;-75
2021/12/16 03:03:59;;;;;;;16.00;13.68;;;4.70;99.90;;;;;;1937575;72;21161;-75
2021/12/16 03:06:27;;;;;;;19.42;14.63;;;4.70;99.90;;;;;;1944281;72;21084;-75
2021/12/16 03:08:53;;;;;;;16.60;13.55;;;4.80;99.90;;;;;;1939427;72;21173;-74
2021/12/16 03:19:17;;;;;;;;;;;4.80;99.90;;;;;;1945345;73;21182;-75
2021/12/16 03:21:41;;;;;;;;;;;4.80;99.90;;;;;;1940847;72;20139;-75
2021/12/16 03:27:32;;;;;;;17.95;14.53;;;4.70;99.90;;;;;;1931287;72;21060;-75
2021/12/16 03:29:41;;;;;;;19.67;13.85;;;4.60;99.90;;;;;;1939068;72;21480;-74
2021/12/16 03:32:05;;;;;;;17.12;14.58;;;4.70;99.90;;;;;;1927258;73;21145;-75
2021/12/16 03:37:15;;;;;;;17.62;13.90;;;4.70;99.90;;;;;;1941253;72;21055;-75
2021/12/16 03:39:41;;;;;;;20.57;14.58;;;4.80;99.90;;;;;;1940827;73;21044;-75
2021/12/16 03:42:07;;;;;;;19.60;15.03;;;4.70;99.90;;;;;;1936275;72;21197;-75
2021/12/16 03:44:49;;;;;;;20.37;15.43;;;4.70;99.90;;;;;;1936401;72;21074;-75
2021/12/16 03:47:01;;;;;;;19.07;15.58;;;4.70;99.90;;;;;;1940786;73;21094;-75
2021/12/16 03:49:27;;;;;;;20.45;16.97;;;4.70;99.90;;;;;;1940221;72;21117;-75
2021/12/16 03:51:53;;;;;;;25.97;16.80;;;4.70;99.90;;;;;;1937773;72;21088;-75
2021/12/16 03:54:19;;;;;;;20.17;15.43;;;4.70;99.90;;;;;;1942893;73;21114;-75
2021/12/16 03:56:46;;;;;;;23.18;16.62;;;4.80;99.90;;;;;;1949996;72;21066;-74
2021/12/16 03:59:12;;;;;;;22.22;16.70;;;4.70;99.90;;;;;;1949645;72;21098;-74
2021/12/16 04:01:38;;;;;;;23.98;16.50;;;4.70;99.90;;;;;;1944707;72;21070;-75
2021/12/16 04:04:04;;;;;;;24.23;15.78;;;4.70;99.90;;;;;;1940528;73;21088;-75
2021/12/16 04:06:30;;;;;;;25.57;16.65;;;4.70;99.90;;;;;;1936659;72;21039;-75
2021/12/16 04:08:57;;;;;;;20.97;15.28;;;4.70;99.90;;;;;;1941531;73;21168;-75
2021/12/16 04:11:23;;;;;;;23.75;16.65;;;4.70;99.90;;;;;;1935313;72;21070;-75
2021/12/16 04:13:59;;;;;;;22.73;15.28;;;4.60;99.90;;;;;;1937792;72;21195;-75
2021/12/16 04:16:20;;;;;;;21.23;14.38;;;4.60;99.90;;;;;;1940869;73;21574;-75
2021/12/16 04:18:46;;;;;;;19.50;13.22;;;4.60;99.90;;;;;;1944857;72;21456;-75
2021/12/16 04:21:12;;;;;;;19.57;13.10;;;4.60;99.90;;;;;;1937301;72;21491;-75
2021/12/16 04:23:38;;;;;;;17.45;12.60;;;4.50;99.90;;;;;;1939314;72;21067;-74
2021/12/16 04:26:04;;;;;;;19.87;13.75;;;4.50;99.90;;;;;;1944542;72;21194;-75
2021/12/16 04:28:31;;;;;;;21.42;13.08;;;4.50;99.90;;;;;;1929182;73;21080;-75
2021/12/16 04:30:57;;;;;;;17.00;13.08;;;4.50;99.90;;;;;;1929301;73;21048;-76
2021/12/16 04:33:23;;;;;;;18.73;13.05;;;4.50;99.90;;;;;;1940353;72;21484;-75
2021/12/16 04:35:51;;;;;;;18.40;11.78;;;4.50;99.90;;;;;;1942162;73;21562;-75
2021/12/16 04:38:17;;;;;;;17.42;12.40;;;4.50;99.90;;;;;;1937117;72;21128;-75
2021/12/16 04:40:45;;;;;;;13.88;11.28;;;4.60;99.90;;;;;;1933135;72;21080;-76
2021/12/16 04:43:18;;;;;;;17.32;11.88;;;4.50;99.90;;;;;;1931319;73;21112;-76
2021/12/16 04:45:38;;;;;;;20.80;11.78;;;4.50;99.90;;;;;;1939226;72;21173;-75
2021/12/16 04:48:04;;;;;;;26.65;11.38;;;4.60;99.90;;;;;;1951117;72;21054;-75
2021/12/16 04:50:31;;;;;;;15.15;11.30;;;4.50;99.90;;;;;;1948888;72;21067;-75
2021/12/16 04:52:57;;;;;;;14.33;10.70;;;4.50;99.90;;;;;;1940165;73;21184;-75
2021/12/16 04:55:23;;;;;;;15.25;11.10;;;4.40;99.90;;;;;;1943499;73;21200;-75
2021/12/16 04:57:49;;;;;;;16.95;10.72;;;4.40;99.90;;;;;;1943720;72;21076;-75
2021/12/16 05:00:15;;;;;;;15.88;11.90;;;4.50;99.90;;;;;;1940097;73;21153;-74
2021/12/16 05:02:41;;;;;;;16.00;11.75;;;4.50;99.90;;;;;;1946820;72;21179;-76
2021/12/16 05:05:07;;;;;;;18.90;10.55;;;4.50;99.90;;;;;;1952001;72;21063;-75
2021/12/16 05:07:34;;;;;;;12.73;9.83;;;4.60;99.90;;;;;;1943967;72;21070;-76
2021/12/16 05:12:34;;;;;;;12.55;10.15;;;4.60;99.90;;;;;;1942840;72;21508;-76
2021/12/16 05:14:58;;;;;;;13.45;10.00;;;4.60;99.90;;;;;;1947041;72;21087;-75
2021/12/16 05:17:36;;;;;;;14.23;10.78;;;4.50;99.90;;;;;;1944086;72;21141;-74
2021/12/16 05:19:56;;;;;;;18.77;10.20;;;4.50;99.90;;;;;;1939323;72;21091;-75
2021/12/16 05:25:09;;;;;;;11.40;9.30;;;4.60;99.90;;;;;;1938209;72;21088;-75
2021/12/16 05:27:34;;;;;;;19.05;9.65;;;4.50;99.90;;;;;;1934900;73;21202;-74
2021/12/16 05:30:01;;;;;;;16.32;9.90;;;4.60;99.90;;;;;;1936819;72;21063;-75
2021/12/16 05:32:27;;;;;;;15.23;9.48;;;4.50;99.90;;;;;;1936065;73;21114;-74
2021/12/16 05:34:53;;;;;;;19.20;10.10;;;4.50;99.90;;;;;;1945917;72;21213;-75
2021/12/16 05:37:19;;;;;;;14.33;9.10;;;4.60;99.90;;;;;;1937899;73;21491;-75
2021/12/16 05:39:45;;;;;;;12.20;8.78;;;4.60;99.90;;;;;;1939416;72;21503;-74
2021/12/16 05:42:11;;;;;;;12.05;9.35;;;4.70;99.90;;;;;;1936324;72;21545;-74
2021/12/16 05:44:37;;;;;;;12.75;9.63;;;4.60;99.90;;;;;;1936025;73;21447;-74
2021/12/16 05:47:03;;;;;;;17.32;10.32;;;4.70;99.90;;;;;;1930239;73;21564;-76
2021/12/16 05:49:30;;;;;;;14.00;9.83;;;4.70;99.90;;;;;;1931776;72;21540;-77
2021/12/16 05:51:57;;;;;;;13.68;10.05;;;4.70;99.90;;;;;;1916827;71;21133;-75
2021/12/16 05:54:25;;;;;;;14.80;11.40;;;4.60;99.90;;;;;;1926398;71;21084;-75
2021/12/16 05:56:54;;;;;;;15.43;10.10;;;4.60;99.90;;;;;;1952637;72;21070;-76
2021/12/16 05:59:20;;;;;;;12.63;8.95;;;4.70;99.90;;;;;;1933674;72;21193;-76
2021/12/16 06:01:48;;;;;;;18.35;10.50;;;4.70;99.90;;;;;;1924674;72;21262;-76
2021/12/16 06:04:14;;;;;;;14.63;10.65;;;4.70;99.90;;;;;;1944762;73;21116;-76
2021/12/16 06:06:40;;;;;;;16.87;10.20;;;4.60;99.90;;;;;;1935707;73;21152;-75
2021/12/16 06:09:06;;;;;;;14.45;9.58;;;4.70;99.90;;;;;;1943755;72;21068;-74
2021/12/16 06:11:33;;;;;;;12.23;9.15;;;4.70;99.90;;;;;;1937537;73;21076;-75
2021/12/16 06:14:10;;;;;;;13.68;9.90;;;4.80;99.90;;;;;;1948713;72;21463;-74
2021/12/16 06:27:28;;;;;;;11.50;8.78;;;4.80;99.90;;;;;;1926457;73;21155;-76
2021/12/16 06:29:54;;;;;;;13.93;9.05;;;4.90;99.90;;;;;;1936025;73;21579;-75
2021/12/16 06:32:21;;;;;;;11.43;8.55;;;4.90;99.90;;;;;;1941853;72;21142;-75
2021/12/16 06:34:47;;;;;;;14.10;8.73;;;4.90;99.90;;;;;;1950264;73;21110;-76
2021/12/16 06:37:13;;;;;;;12.98;8.58;;;4.90;99.90;;;;;;1945322;72;21141;-76
2021/12/16 06:39:39;;;;;;;13.93;9.00;;;4.90;99.90;;;;;;1945697;72;21055;-75
2021/12/16 06:42:07;;;;;;;14.80;11.63;;;4.90;99.90;;;;;;1939939;72;21080;-75
2021/12/16 06:44:39;;;;;;;19.92;12.40;;;4.80;99.90;;;;;;1936082;72;21083;-76
2021/12/16 06:47:07;;;;;;;16.85;11.95;;;4.80;99.90;;;;;;1949668;72;21501;-76
2021/12/16 06:49:30;;;;;;;16.73;11.48;;;4.80;99.90;;;;;;1939066;72;21099;-77
2021/12/16 06:52:00;;;;;;;20.43;12.03;;;4.80;99.90;;;;;;1938882;72;21262;-76
2021/12/16 06:54:28;;;;;;;18.52;12.43;;;4.80;99.90;;;;;;1940864;72;21598;-76
2021/12/16 06:59:41;;;;;;;22.85;12.10;;;4.70;99.90;;;;;;1936564;73;21194;-79
2021/12/16 07:02:13;;;;;;;20.57;12.65;;;4.90;99.90;;;;;;1947441;73;21103;-78
2021/12/16 07:04:34;;;;;;;;;;;4.90;99.90;;;;;;1949130;72;21088;-78
2021/12/16 07:07:00;;;;;;;24.45;12.20;;;4.80;99.90;;;;;;1948156;72;20113;-75
2021/12/16 07:09:26;;;;;;;15.28;11.75;;;4.90;99.90;;;;;;1948626;72;21084;-75
2021/12/16 07:11:53;;;;;;;17.07;10.60;;;4.80;99.90;;;;;;1939523;72;21072;-76
2021/12/16 07:14:19;;;;;;;18.48;12.50;;;4.70;99.90;;;;;;1932311;73;21148;-75
2021/12/16 07:16:45;;;;;;;17.00;11.48;;;4.70;99.90;;;;;;1941507;73;21560;-75
2021/12/16 07:19:12;;;;;;;16.85;11.85;;;4.80;99.90;;;;;;1943438;72;21435;-76
2021/12/16 07:21:38;;;;;;;16.60;12.47;;;4.70;99.90;;;;;;1951685;73;21062;-76
2021/12/16 07:24:04;;;;;;;18.40;12.60;;;4.70;99.90;;;;;;1946410;72;21087;-76
2021/12/16 07:26:30;;;;;;;14.68;11.33;;;4.70;99.90;;;;;;1922912;73;21205;-75
2021/12/16 07:28:56;;;;;;;17.87;12.47;;;4.80;99.90;;;;;;1941495;72;21078;-75
2021/12/16 07:31:22;;;;;;;17.10;11.65;;;4.80;99.90;;;;;;1946939;72;21062;-76
2021/12/16 07:33:48;;;;;;;16.10;11.80;;;4.80;99.90;;;;;;1935518;73;21076;-76
2021/12/16 07:36:18;;;;;;;16.42;11.88;;;4.80;99.90;;;;;;1950693;72;21041;-76
2021/12/16 07:38:42;;;;;;;17.10;12.28;;;4.80;99.90;;;;;;1931428;73;21240;-74
2021/12/16 07:41:08;;;;;;;18.85;12.47;;;4.80;99.90;;;;;;1939407;72;21657;-77
2021/12/16 07:43:53;;;;;;;14.85;10.58;;;5.00;99.90;;;;;;1935314;72;21137;-76
2021/12/16 07:46:08;;;;;;;13.43;10.08;;;5.00;99.90;;;;;;1930288;72;21094;-77
2021/12/16 07:48:34;;;;;;;13.55;10.35;;;5.10;99.90;;;;;;1934250;72;21149;-78
2021/12/16 07:51:01;;;;;;;15.72;10.60;;;5.00;99.90;;;;;;1926983;72;21063;-77
2021/12/16 07:53:27;;;;;;;19.48;10.68;;;5.20;99.90;;;;;;1937952;73;21141;-77
2021/12/16 07:55:53;;;;;;;17.95;11.60;;;5.30;99.90;;;;;;1932519;72;21066;-77
2021/12/16 07:58:19;;;;;;;11.65;9.35;;;5.20;99.90;;;;;;1926307;72;21168;-77
2021/12/16 08:00:45;;;;;;;17.27;10.55;;;5.20;99.90;;;;;;1947870;72;21068;-77
2021/12/16 08:03:11;;;;;;;14.33;10.23;;;5.30;99.90;;;;;;1937519;72;21088;-77
2021/12/16 08:05:39;;;;;;;15.75;11.10;;;5.30;99.90;;;;;;1939020;72;21115;-76
2021/12/16 08:08:05;;;;;;;19.17;10.90;;;5.30;99.90;;;;;;1939126;72;21133;-77
2021/12/16 08:10:31;;;;;;;15.60;10.98;;;5.30;99.90;;;;;;1947516;72;21063;-76
2021/12/16 08:12:57;;;;;;;14.68;10.93;;;5.30;99.90;;;;;;1950847;72;21141;-77
2021/12/16 08:15:24;;;;;;;14.40;10.45;;;5.30;99.90;;;;;;1938312;72;21504;-77
2021/12/16 08:17:50;;;;;;;16.75;10.90;;;5.30;99.90;;;;;;1933459;73;21510;-77
2021/12/16 08:20:19;;;;;;;16.60;11.55;;;5.40;99.90;;;;;;1934772;72;21499;-76
2021/12/16 08:22:45;;;;;;;15.75;11.55;;;5.40;99.90;;;;;;1947480;72;21258;-78
2021/12/16 08:25:11;;;;;;;16.32;10.98;;;5.40;99.90;;;;;;1949076;73;21216;-78
2021/12/16 08:27:39;;;;;;;20.37;12.90;;;5.40;99.90;;;;;;1947841;72;22513;-78
2021/12/16 08:30:05;;;;;;;19.45;12.47;;;5.30;99.90;;;;;;1936563;70;21182;-80
2021/12/16 08:32:31;;;;;;;17.20;11.60;;;5.40;99.90;;;;;;1935204;72;21042;-78
2021/12/16 08:34:57;;;;;;;17.98;12.90;;;5.40;99.90;;;;;;1935073;72;21162;-79
2021/12/16 08:37:24;;;;;;;20.43;11.85;;;5.30;99.90;;;;;;1933951;72;21096;-78
2021/12/16 08:39:50;;;;;;;17.23;11.55;;;5.40;99.90;;;;;;1946204;72;21076;-78
2021/12/16 08:42:16;;;;;;;16.32;11.38;;;5.50;99.90;;;;;;1924923;72;21088;-78
2021/12/16 08:44:43;;;;;;;15.85;11.80;;;5.50;99.90;;;;;;1944384;72;21031;-78
2021/12/16 08:47:09;;;;;;;17.52;12.23;;;5.50;99.90;;;;;;1931949;72;21087;-76
2021/12/16 08:49:35;;;;;;;18.75;12.07;;;5.50;99.90;;;;;;1950129;72;21066;-77
2021/12/16 08:52:01;;;;;;;18.55;11.93;;;5.40;99.90;;;;;;1923825;72;21078;-76
2021/12/16 08:54:28;;;;;;;20.55;11.97;;;5.40;99.90;;;;;;1928939;72;21101;-77
2021/12/16 08:56:54;;;;;;;18.80;12.10;;;5.30;99.90;;;;;;1938157;73;21060;-78
2021/12/16 08:59:20;;;;;;;18.30;11.70;;;5.30;99.90;;;;;;1934990;72;21097;-78
2021/12/16 09:01:46;;;;;;;18.10;12.05;;;5.40;99.90;;;;;;1923602;73;21570;-78
2021/12/16 09:04:12;;;;;;;18.50;11.43;;;5.30;99.90;;;;;;1928336;72;21063;-77
2021/12/16 09:06:38;;;;;;;21.57;12.33;;;5.30;99.90;;;;;;1938019;73;21207;-78
2021/12/16 09:09:05;;;;;;;20.75;12.82;;;5.30;99.90;;;;;;1932165;72;21037;-77
2021/12/16 09:11:34;;;;;;;21.33;11.18;;;5.30;99.90;;;;;;1937568;73;21200;-76
2021/12/16 09:13:58;;;;;;;21.15;11.95;;;5.40;99.90;;;;;;1929723;72;21527;-78
2021/12/16 09:16:25;;;;;;;21.15;12.35;;;5.30;99.90;;;;;;1957614;73;21155;-76
2021/12/16 09:18:51;;;;;;;21.95;13.40;;;5.40;99.90;;;;;;1936820;73;21582;-77
2021/12/16 09:21:17;;;;;;;19.32;13.28;;;5.60;99.90;;;;;;1944409;72;21157;-78
2021/12/16 09:23:43;;;;;;;21.50;12.80;;;5.50;99.90;;;;;;1939250;72;21134;-77
2021/12/16 09:26:09;;;;;;;28.12;14.93;;;5.50;99.90;;;;;;1943518;72;21141;-77
2021/12/16 09:28:35;;;;;;;19.98;13.95;;;5.60;99.90;;;;;;1933968;72;21274;-76
2021/12/16 09:31:04;;;;;;;18.92;12.55;;;5.60;99.90;;;;;;1949661;72;21133;-76
2021/12/16 09:33:29;;;;;;;16.40;12.60;;;5.50;99.90;;;;;;1947478;71;21067;-77
2021/12/16 09:35:55;;;;;;;25.60;13.40;;;5.40;99.90;;;;;;1942530;72;21066;-77
2021/12/16 09:38:22;;;;;;;22.22;14.87;;;5.40;99.90;;;;;;1951856;72;21076;-77
2021/12/16 09:40:51;;;;;;;23.02;13.93;;;5.50;99.90;;;;;;1935555;73;21056;-78
2021/12/16 09:43:16;;;;;;;18.52;13.53;;;5.50;99.90;;;;;;1939380;72;21202;-78
2021/12/16 09:45:42;;;;;;;17.82;13.20;;;5.50;99.90;;;;;;1949287;72;21144;-76
2021/12/16 09:48:08;;;;;;;30.37;16.07;;;5.50;99.90;;;;;;1943217;72;21080;-76
2021/12/16 09:50:34;;;;;;;23.32;14.13;;;5.50;99.90;;;;;;1942364;72;21041;-76
2021/12/16 09:53:01;;;;;;;20.82;13.38;;;5.70;99.90;;;;;;1931594;72;21163;-76
2021/12/16 09:55:27;;;;;;;22.07;14.87;;;5.70;99.90;;;;;;1945010;72;21140;-78
2021/12/16 09:57:54;;;;;;;18.40;12.33;;;5.80;99.90;;;;;;1954565;71;21066;-77
2021/12/16 10:00:22;;;;;;;28.90;15.23;;;5.60;99.90;;;;;;1931692;72;21162;-79
2021/12/16 10:02:48;;;;;;;27.58;13.50;;;5.70;99.90;;;;;;1943779;72;21240;-78
2021/12/16 10:05:14;;;;;;;21.33;12.93;;;5.70;99.90;;;;;;1938930;72;21170;-78
2021/12/16 10:07:40;;;;;;;17.73;11.88;;;5.70;99.90;;;;;;1935773;72;21080;-78
2021/12/16 10:10:06;;;;;;;17.60;11.80;;;5.70;99.90;;;;;;1953546;72;21082;-78
2021/12/16 10:12:37;;;;;;;23.32;12.73;;;5.80;99.90;;;;;;1935867;73;21472;-78
2021/12/16 10:15:06;;;;;;;18.75;12.37;;;5.90;99.90;;;;;;1927920;72;21102;-79
2021/12/16 10:17:31;;;;;;;19.67;12.50;;;5.90;99.90;;;;;;1938874;71;21088;-77
2021/12/16 10:19:57;;;;;;;16.30;11.28;;;5.80;99.90;;;;;;1933692;73;21084;-78
2021/12/16 10:22:23;;;;;;;17.80;11.50;;;5.90;99.90;;;;;;1919239;72;21083;-78
2021/12/16 10:24:49;;;;;;;15.68;11.85;;;5.90;99.90;;;;;;1929040;72;21439;-79
2021/12/16 10:27:17;;;;;;;19.67;11.85;;;5.90;99.90;;;;;;1939754;72;21486;-78
2021/12/16 10:29:43;;;;;;;16.87;11.30;;;5.90;99.90;;;;;;1935066;72;21085;-79
2021/12/16 10:32:09;;;;;;;20.05;11.80;;;6.00;99.90;;;;;;1928264;72;21049;-78
2021/12/16 10:34:35;;;;;;;22.90;11.40;;;6.10;99.90;;;;;;1905679;73;21061;-79
2021/12/16 10:37:01;;;;;;;14.98;11.28;;;6.00;99.90;;;;;;1953893;72;21117;-79
2021/12/16 10:39:27;;;;;;;19.62;11.70;;;6.00;99.90;;;;;;1953904;72;21079;-78
2021/12/16 10:41:53;;;;;;;17.15;11.53;;;5.90;99.90;;;;;;1953142;72;21192;-79
2021/12/16 10:44:20;;;;;;;19.50;11.65;;;6.00;99.90;;;;;;1946375;72;21303;-80
2021/12/16 10:46:46;;;;;;;18.02;11.50;;;5.90;99.90;;;;;;1940530;72;21136;-80
2021/12/16 10:49:12;;;;;;;21.27;13.45;;;6.00;99.90;;;;;;1944971;72;21538;-79
2021/12/16 10:51:38;;;;;;;18.95;11.33;;;6.00;99.90;;;;;;1933544;72;21488;-79
2021/12/16 10:54:04;;;;;;;18.52;13.28;;;6.10;99.90;;;;;;1930410;72;21467;-80
2021/12/16 10:56:30;;;;;;;19.32;11.68;;;6.10;99.90;;;;;;1922033;73;21091;-80
2021/12/16 10:59:01;;;;;;;24.18;12.63;;;6.10;99.90;;;;;;1921280;72;21072;-81
2021/12/16 11:01:24;;;;;;;18.55;11.73;;;6.10;99.90;;;;;;1933778;73;21085;-79
2021/12/16 11:03:50;;;;;;;16.20;10.95;;;6.10;99.90;;;;;;1940063;72;21148;-78
2021/12/16 11:06:16;;;;;;;15.38;11.15;;;6.10;99.90;;;;;;1927058;73;21088;-77
2021/12/16 11:08:43;;;;;;;22.35;11.88;;;6.10;99.90;;;;;;1932754;73;21127;-79
2021/12/16 11:11:12;;;;;;;18.95;11.55;;;6.10;99.90;;;;;;1936259;72;21047;-79
2021/12/16 11:13:36;;;;;;;15.68;10.58;;;6.20;99.90;;;;;;1929815;72;21494;-79
2021/12/16 11:16:03;;;;;;;17.07;10.80;;;6.10;99.90;;;;;;1942013;72;21480;-79
2021/12/16 11:18:29;;;;;;;22.75;11.15;;;6.10;99.90;;;;;;1950218;73;21472;-79
2021/12/16 11:20:55;;;;;;;16.32;11.20;;;6.20;99.90;;;;;;1937223;72;21405;-79
2021/12/16 11:23:21;;;;;;;13.68;10.13;;;6.20;99.90;;;;;;1934889;73;21116;-78
2021/12/16 11:25:47;;;;;;;16.95;11.38;;;6.00;99.90;;;;;;1942896;72;21202;-80
2021/12/16 11:28:13;;;;;;;18.95;10.15;;;5.90;99.90;;;;;;1943724;73;21125;-78
2021/12/16 11:30:40;;;;;;;17.27;10.90;;;6.00;99.90;;;;;;1938900;72;21088;-79
2021/12/16 11:33:07;;;;;;;16.20;10.82;;;6.10;99.90;;;;;;1944031;73;21167;-78
2021/12/16 11:35:33;;;;;;;14.43;10.25;;;6.10;99.90;;;;;;1939179;72;21271;-79
2021/12/16 11:37:59;;;;;;;26.02;11.78;;;6.20;99.90;;;;;;1939781;72;21205;-78
2021/12/16 11:40:25;;;;;;;13.88;10.60;;;6.20;99.90;;;;;;1947156;72;21079;-78
2021/12/16 11:42:51;;;;;;;14.53;10.50;;;6.20;99.90;;;;;;1941311;72;21053;-80
2021/12/16 11:45:17;;;;;;;15.43;10.32;;;6.30;99.90;;;;;;1937290;73;21136;-79
2021/12/16 11:47:43;;;;;;;14.70;9.50;;;6.40;99.90;;;;;;1941014;72;21079;-79
2021/12/16 11:50:10;;;;;;;16.75;10.85;;;6.30;99.90;;;;;;1933830;73;21074;-81
2021/12/16 11:52:37;;;;;;;16.20;10.90;;;6.40;99.90;;;;;;1933137;72;21544;-80
2021/12/16 11:55:03;;;;;;;11.90;9.88;;;6.40;99.90;;;;;;1954414;72;21082;-80
2021/12/16 11:57:29;;;;;;;16.07;11.08;;;6.50;99.90;;;;;;1937182;72;21074;-79
2021/12/16 11:59:56;;;;;;;17.02;9.98;;;6.40;99.90;;;;;;1949370;72;21067;-80
2021/12/16 12:02:22;;;;;;;15.88;10.30;;;6.30;99.90;;;;;;1950511;72;21103;-79
2021/12/16 12:04:48;;;;;;;19.62;10.60;;;6.30;99.90;;;;;;1946551;73;21148;-80
2021/12/16 12:07:14;;;;;;;15.53;11.22;;;6.20;99.90;;;;;;1932427;72;21078;-79
2021/12/16 12:09:40;;;;;;;18.52;11.33;;;6.30;99.90;;;;;;1935534;72;21091;-77
2021/12/16 12:12:08;;;;;;;16.77;10.25;;;6.20;99.90;;;;;;1928518;72;21092;-79
2021/12/16 12:14:35;;;;;;;17.20;10.70;;;6.20;99.90;;;;;;1937678;72;21091;-77
2021/12/16 12:17:01;;;;;;;13.53;10.90;;;6.20;99.90;;;;;;1948008;72;21137;-79
2021/12/16 12:19:27;;;;;;;15.90;10.18;;;6.20;99.90;;;;;;1922446;73;21157;-79
2021/12/16 12:21:56;;;;;;;18.77;11.00;;;6.30;99.90;;;;;;1938723;73;21145;-80
2021/12/16 12:24:21;;;;;;;13.93;9.75;;;6.40;99.90;;;;;;1934166;73;21533;-78
2021/12/16 12:26:47;;;;;;;14.87;10.05;;;6.50;99.90;;;;;;1936972;72;21070;-80
2021/12/16 12:29:13;;;;;;;13.45;9.60;;;6.70;99.90;;;;;;1945307;72;21459;-79
2021/12/16 12:31:40;;;;;;;12.00;9.23;;;6.70;99.90;;;;;;1947261;72;21551;-79
2021/12/16 12:34:08;;;;;;;17.55;9.70;;;6.70;99.90;;;;;;1927295;72;21497;-77
2021/12/16 12:36:33;;;;;;;16.48;10.32;;;6.60;99.90;;;;;;1938948;72;21097;-76
2021/12/16 12:39:02;;;;;;;11.85;9.83;;;6.60;99.90;;;;;;1935667;72;21153;-76
2021/12/16 12:41:27;;;;;;;19.42;10.08;;;6.60;99.90;;;;;;1946381;72;21112;-77
2021/12/16 12:43:57;;;;;;;13.05;8.73;;;6.70;99.90;;;;;;1934764;72;21189;-77
2021/12/16 12:46:23;;;;;;;13.60;9.90;;;6.60;99.90;;;;;;1947391;72;21503;-77
2021/12/16 12:48:49;;;;;;;14.28;9.13;;;6.60;99.90;;;;;;1945472;72;21189;-79
2021/12/16 12:51:15;;;;;;;15.55;9.35;;;6.70;99.90;;;;;;1934124;71;21226;-76
2021/12/16 12:53:48;;;;;;;14.43;9.53;;;6.60;99.90;;;;;;1925606;72;21071;-76
2021/12/16 12:56:12;;;;;;;;;;;6.60;99.90;;;;;;1948519;72;21095;-77
2021/12/16 12:58:38;;;;;;;13.53;8.75;;;6.60;99.90;;;;;;1941632;72;20121;-78
2021/12/16 13:01:04;;;;;;;15.83;9.48;;;6.70;99.90;;;;;;1945667;72;21117;-77
2021/12/16 13:03:30;;;;;;;16.85;8.98;;;7.00;99.90;;;;;;1943714;72;21071;-77
2021/12/16 13:05:58;;;;;;;13.03;8.70;;;7.00;99.90;;;;;;1939999;72;21075;-78
2021/12/16 13:08:24;;;;;;;16.17;10.23;;;7.00;99.90;;;;;;1929768;72;21122;-78
2021/12/16 13:10:50;;;;;;;13.20;8.90;;;6.90;99.90;;;;;;1941546;73;21108;-78
2021/12/16 13:15:55;;;;;;;14.00;8.63;;;7.10;99.90;;;;;;1944803;72;21525;-77
2021/12/16 13:23:53;;;;;;;16.48;8.95;;;7.10;99.90;;;;;;1916217;72;21217;-77
2021/12/16 13:26:18;;;;;;;12.95;8.38;;;7.10;99.90;;;;;;1809931;74;21121;-77
2021/12/16 13:31:09;;;;;;;13.05;8.45;;;7.30;99.90;;;;;;1845512;76;21109;-73
2021/12/16 13:33:40;;;;;;;11.18;8.90;;;7.20;99.90;;;;;;1835324;76;21237;-74
2021/12/16 13:36:16;;;;;;;;;;;;;;;;;;;;;
2021/12/16 13:38:31;;;;;;;11.65;8.10;;;7.10;99.90;;;;;;1848452;76;21062;-74
2021/12/16 13:40:57;;;;;;;14.80;9.05;;;7.10;99.90;;;;;;1831311;77;21193;-74
2021/12/16 13:43:25;;;;;;;14.68;9.10;;;7.10;99.90;;;;;;1846574;76;21236;-74
2021/12/16 13:46:00;;;;;;;14.43;8.55;;;7.10;99.90;;;;;;1828712;77;21107;-73
2021/12/16 13:49:15;;;;;;;;;;;7.00;99.90;;;;;;1846251;76;21260;-75
2021/12/16 14:02:04;;;;;;;12.58;8.45;;;6.80;99.90;;;;;;1838893;76;21183;-72
2021/12/16 14:07:28;;;;;;;15.78;8.25;;;7.00;99.90;;;;;;1831631;76;21137;-72
2021/12/16 14:09:41;;;;;;;12.80;8.50;;;7.10;99.90;;;;;;1823958;77;21084;-71
2021/12/16 14:14:53;;;;;;;10.90;8.23;;;7.10;99.90;;;;;;1823615;77;21536;-72
2021/12/16 14:17:27;;;;;;;11.00;8.30;;;7.20;99.90;;;;;;1834773;75;21210;-72
2021/12/16 14:25:23;;;;;;;12.68;7.10;;;7.30;99.90;;;;;;1829192;77;21099;-73
2021/12/16 14:39:00;;;;;;;10.63;7.53;;;7.20;99.90;;;;;;1822813;77;21574;-74
2021/12/16 14:41:14;;;;;;;10.53;7.30;;;7.30;99.90;;;;;;1836407;77;21533;-73
2021/12/16 14:43:41;;;;;;;11.00;8.18;;;7.30;99.90;;;;;;1832483;76;21460;-74
2021/12/16 14:46:07;;;;;;;;;;;7.30;99.90;;;;;;1830033;76;21255;-73
2021/12/16 14:48:35;;;;;;;10.80;7.35;;;7.30;99.90;;;;;;1852102;75;20151;-73
2021/12/16 14:51:00;;;;;;;13.48;7.58;;;7.30;99.90;;;;;;1836020;75;21251;-73
2021/12/16 14:53:26;;;;;;;11.78;7.75;;;7.30;99.90;;;;;;1849789;77;21072;-73
2021/12/16 14:55:52;;;;;;;10.13;7.53;;;7.20;99.90;;;;;;1842945;76;21172;-73
2021/12/16 14:58:19;;;;;;;9.90;7.47;;;7.10;99.90;;;;;;1842941;77;21082;-74
2021/12/16 15:00:46;;;;;;;11.45;7.55;;;7.20;99.90;;;;;;1852075;75;21188;-73
2021/12/16 15:03:13;;;;;;;11.70;7.17;;;7.20;99.90;;;;;;1845335;76;21086;-72
2021/12/16 15:05:41;;;;;;;9.70;7.10;;;7.10;99.90;;;;;;1841731;77;21521;-73
2021/12/16 15:08:07;;;;;;;10.08;7.72;;;7.00;99.90;;;;;;1836142;75;21140;-72
2021/12/16 15:10:33;;;;;;;14.90;8.48;;;6.80;99.90;;;;;;1838973;77;21512;-72
2021/12/16 15:13:20;;;;;;;12.23;7.92;;;6.70;99.90;;;;;;1847790;77;21574;-73
2021/12/16 15:15:49;;;;;;;14.30;7.58;;;6.70;99.90;;;;;;1833947;75;21135;-73
2021/12/16 15:40:11;;;;;;;12.53;7.90;;;5.90;99.90;;;;;;1836763;77;21240;-72
2021/12/16 15:45:06;;;;;;;16.05;7.92;;;5.60;99.90;;;;;;1820588;77;21096;-72
2021/12/16 15:47:32;;;;;;;17.40;8.80;;;5.60;99.90;;;;;;1836390;77;21111;-74
2021/12/16 15:49:58;;;;;;;13.70;7.95;;;5.50;99.90;;;;;;1826636;76;21531;-73
2021/12/16 15:52:24;;;;;;;14.75;8.40;;;5.50;99.90;;;;;;1817336;77;21578;-74
2021/12/16 15:54:52;;;;;;;16.65;7.80;;;5.40;99.90;;;;;;1833596;77;21075;-73